Latest Coastal Weather Observations for Christmas Island

IDW60701

Issued at 11:02 am WST Thursday 30 June 2016 (issued every 10 minutes, with the page automatically refreshed every 10 minutes)

About coastal observations | Map of coastal stations | Coastal observations for WA | Marine services | Other Formats
Station Details ID: 200790 Name: CHRISTMAS ISLAND AERO Lat: -10.45 Lon: 105.69 Height: 261.0 m
Data from the previous 72 hours. | See also: Recent months at Christmas Island
Date/Time
WST
Temp
°C
Wind Pressure Rain since
9am
mm
Weather Cloud Vis
km
Sea
Height
m
Swell
Dir  Spd
kts
Gust
kts
hPa Trend Height
m
Period
s
Dir
30/11:00am 24.5 SE 12 19 1014.1 - 2.8 - Partly cloudy 4 - - - -
30/10:52am 24.6 SE 10 19 1014.2 - 1.4 - Partly cloudy 5 - - - -
30/10:30am 24.4 SE 11 20 1014.1 - 0.4 - Partly cloudy 9 - - - -
30/10:14am 23.9 SE 12 16 1014.1 - 0.4 - Partly cloudy 8 - - - -
30/10:00am 23.6 SE 11 18 1012.7 - 20.8 - Cloudy 2 - - - -
30/09:32am 24.7 SE 15 23 1014.0 - 18.6 - Partly cloudy 6 - - - -
30/09:30am 24.9 SE 15 22 1013.9 - 18.2 - Partly cloudy 8 - - - -
30/09:26am 24.9 SE 14 19 1013.9 - 18.0 - Partly cloudy 9 - - - -
30/09:00am 24.9 SE 9 17 1014.1 - 17.8 - Partly cloudy 3 - - - -
30/08:52am 25.0 SE 13 18 1014.1 - 17.8 - Partly cloudy 5 - - - -
30/08:30am 25.4 SE 10 15 1013.6 - 17.6 - Partly cloudy 10 - - - -
30/08:00am 25.3 SE 11 17 1013.5 - 17.6 - Partly cloudy 10 - - - -
30/07:30am 25.0 SE 12 17 1012.8 - 17.6 - Partly cloudy 10 - - - -
30/07:00am 25.0 SE 12 20 1011.2 - 17.6 - Cloudy 10 - - - -
30/06:30am 25.0 SE 12 17 1012.2 - 17.6 - Partly cloudy 10 - - - -
30/06:26am 25.0 SE 13 19 1012.3 - 17.6 - Partly cloudy 10 - - - -
30/06:15am 25.0 SE 14 21 1012.3 - 17.6 - Partly cloudy 10 - - - -
30/06:00am 24.9 SE 14 20 1012.3 - 17.6 - Partly cloudy 10 - - - -
30/05:30am 25.0 SE 13 20 1012.7 - 17.6 - Partly cloudy 10 - - - -
30/05:00am 25.0 SE 13 18 1012.6 - 17.6 - Partly cloudy 10 - - - -
30/04:30am 25.0 SE 13 20 1012.5 - 17.6 - Partly cloudy 10 - - - -
30/04:00am 24.9 SE 12 18 1010.5 - 17.6 - Cloudy 10 - - - -
30/03:30am 24.8 SE 14 21 1012.2 - 17.6 - Partly cloudy 10 - - - -
30/03:00am 24.7 SE 14 20 1012.4 - 17.6 - Partly cloudy 10 - - - -
30/02:30am 24.9 SE 17 24 1012.7 - 17.6 - Partly cloudy 10 - - - -
30/02:12am 25.2 ESE 15 25 1013.1 - 17.6 - Partly cloudy 6 - - - -
30/02:06am 25.3 ESE 16 22 1013.1 - 17.6 - Partly cloudy 6 - - - -
30/02:00am 25.5 SE 14 22 1013.1 - 17.6 - Partly cloudy 10 - - - -
30/01:30am 25.2 SE 13 18 1013.9 - 17.6 - Partly cloudy 10 - - - -
30/01:00am 24.9 SE 13 19 1012.8 - 17.2 - Cloudy 10 - - - -
30/12:30am 24.7 SE 9 12 1014.5 - 17.2 - Partly cloudy 7 - - - -
30/12:19am 24.5 SE 11 16 1014.6 - 17.2 - Partly cloudy 10 - - - -
30/12:00am 24.0 SE 13 21 1014.7 - 17.0 - Partly cloudy 4 - - - -
 
Date/Time
WST
Temp
°C
Wind Pressure Rain since
9am
mm
Weather Cloud Vis
km
Sea
Height
m
Swell
Dir  Spd
kts
Gust
kts
hPa Trend Height
m
Period
s
Dir
29/11:58pm 24.1 SE 12 21 1014.7 - 15.6 - Partly cloudy 6 - - - -
29/11:39pm 24.5 SE 10 16 1014.8 - 14.6 - Partly cloudy 10 - - - -
29/11:38pm 24.5 SE 10 16 1014.8 - 14.6 - Partly cloudy 10 - - - -
29/11:30pm 24.1 SE 11 17 1014.8 - 14.6 - Partly cloudy 10 - - - -
29/11:00pm 24.8 SE 10 16 1014.9 - 14.6 - Partly cloudy 10 - - - -
29/10:53pm 24.4 SE 11 19 1015.0 - 14.6 - Partly cloudy 10 - - - -
29/10:45pm 24.0 SE 11 17 1015.1 - 14.6 - Partly cloudy 10 - - - -
29/10:30pm 24.3 SE 13 24 1015.2 - 14.6 - Partly cloudy 10 - - - -
29/10:00pm 24.9 SE 12 17 1013.7 - 14.6 - Cloudy 10 - - - -
29/09:30pm 24.7 SSE 8 14 1014.9 - 14.4 - Partly cloudy 10 - - - -
29/09:00pm 24.2 SE 8 15 1014.6 - 14.4 - Partly cloudy 8 - - - -
29/08:42pm 24.5 SE 11 17 1014.4 - 14.4 - Partly cloudy 9 - - - -
29/08:30pm 24.4 SE 10 17 1014.4 - 14.4 - Cloudy 5 - - - -
29/08:20pm 24.6 SSE 9 15 1014.2 - 14.4 - Partly cloudy 6 - - - -
29/08:00pm 24.5 SE 11 16 1014.0 - 14.4 - Partly cloudy 2 - - - -
29/07:41pm 24.1 S 7 12 1013.8 - 14.4 - Partly cloudy 6 - - - -
29/07:30pm 23.9 SE 12 20 1013.6 - 14.4 - Partly cloudy 5 - - - -
29/07:22pm 24.2 SSE 11 20 1013.5 - 14.2 - Partly cloudy 6 - - - -
29/07:00pm 24.8 SSE 7 11 1011.9 - 13.2 - Cloudy 10 - - - -
29/06:40pm 24.4 SSE 8 13 1013.3 - 13.2 - Partly cloudy 10 - - - -
29/06:30pm 24.5 SSE 9 13 1013.2 - 13.0 - Partly cloudy 6 - - - -
29/06:08pm 24.5 SE 7 10 1013.0 - 11.4 - Partly cloudy 6 - - - -
29/06:01pm 24.1 SE 8 12 1012.8 - 11.2 - Partly cloudy 9 - - - -
29/06:00pm 24.0 SE 8 12 1012.8 - 11.2 - Partly cloudy 9 - - - -
29/05:43pm 24.1 SE 9 12 1012.8 - 10.4 - Partly cloudy 6 - - - -
29/05:30pm 23.8 SE 8 12 1013.0 - 10.2 - Partly cloudy 10 - - - -
29/05:25pm 23.4 SE 8 10 1013.1 - 10.2 - Partly cloudy 10 - - - -
29/05:10pm 24.1 ESE 10 19 1013.0 - 9.8 - Partly cloudy 6 - - - -
29/05:00pm 24.6 SE 9 18 1012.8 - 9.6 - Cloudy 10 - - - -
29/04:30pm 25.0 SE 10 15 1012.5 - 9.6 - Partly cloudy 10 - - - -
29/04:01pm 24.5 SE 11 17 1012.4 - 8.6 - Partly cloudy 10 - - - -
29/04:00pm 24.5 SE 11 17 1010.8 - 8.6 - Cloudy 10 - - - -
29/03:30pm 24.8 ESE 13 21 1012.1 - 8.4 - Partly cloudy 2 - - - -
29/03:19pm 25.2 SSE 8 14 1011.9 - 7.8 - Partly cloudy 6 - - - -
29/03:00pm 25.5 SE 9 17 1011.8 - 6.8 - Partly cloudy 10 - - - -
29/02:41pm 25.2 SE 8 12 1012.4 - 6.8 - Partly cloudy 10 - - - -
29/02:30pm 25.0 SSE 8 13 1012.7 - 6.8 - Partly cloudy 10 - - - -
29/02:00pm 25.0 SSE 5 9 1013.0 - 6.0 - Partly cloudy 10 - - - -
29/01:51pm 24.9 SSE 5 10 1013.2 - 6.0 - Partly cloudy 10 - - - -
29/01:30pm 24.7 SSE 6 9 1013.4 - 4.6 - Partly cloudy 6 - - - -
29/01:00pm 24.1 SSE 7 13 1012.1 - 3.8 - Mostly cloudy 4 - - - -
29/12:30pm 25.4 SE 11 16 1013.8 - 3.2 - Partly cloudy 3 - - - -
29/12:27pm 25.6 SE 11 16 1014.0 - 2.0 - Partly cloudy 4 - - - -
29/12:00pm 26.2 SE 8 12 1014.2 - 0.0 - Partly cloudy 10 - - - -
29/11:59am 26.3 SE 8 12 1014.2 - 0.0 - Partly cloudy 10 - - - -
29/11:30am 26.2 SE 9 17 1014.3 - 0.0 - Partly cloudy 10 - - - -
29/11:14am 26.5 SE 9 14 1014.4 - 0.0 - Partly cloudy 10 - - - -
29/11:06am 26.8 SE 11 17 1014.4 - 0.0 - Partly cloudy 10 - - - -
29/11:00am 27.1 SE 12 17 1014.4 - 0.0 - Partly cloudy 10 - - - -
29/10:30am 26.9 SE 9 14 1014.4 - 0.0 - Partly cloudy 10 - - - -
29/10:11am 26.1 SE 9 14 1014.6 - 0.0 - Partly cloudy 10 - - - -
29/10:06am 26.4 SE 9 13 1014.6 - 0.0 - Partly cloudy 10 - - - -
29/10:00am 26.5 SE 10 17 1013.1 - 10.4 - Cloudy 10 - - - -
29/09:30am 26.6 SE 11 17 1014.7 - 10.4 - Partly cloudy 10 - - - -
29/09:20am 26.2 SE 10 15 1014.5 - 10.4 - Partly cloudy 10 - - - -
29/09:00am 25.8 SE 11 16 1014.4 - 10.4 - Partly cloudy 10 - - - -
29/08:51am 25.8 SE 10 16 1014.3 - 10.4 - Partly cloudy 10 - - - -
29/08:41am 25.7 SE 10 14 1014.2 - 10.4 - Partly cloudy 10 - - - -
29/08:39am 25.8 SE 10 14 1014.2 - 10.4 - Partly cloudy 10 - - - -
29/08:30am 25.6 SE 11 15 1014.1 - 10.4 - Partly cloudy 10 - - - -
29/08:04am 25.4 SE 10 14 1013.6 - 10.4 - Partly cloudy 10 - - - -
29/08:00am 25.4 SE 10 14 1013.5 - 10.4 - Partly cloudy 10 - - - -
29/07:30am 25.0 SSE 9 16 1013.0 - 10.4 - Partly cloudy 10 - - - -
29/07:00am 25.1 SE 11 17 1011.2 - 10.4 - Cloudy 10 - - - -
29/06:30am 25.2 SE 12 17 1012.5 - 10.4 - Partly cloudy 10 - - - -
29/06:00am 24.8 SE 10 14 1012.6 - 10.4 - Partly cloudy 10 - - - -
29/05:30am 24.7 SE 10 15 1012.5 - 10.4 - Partly cloudy 10 - - - -
29/05:00am 24.7 SE 10 15 1012.6 - 10.4 - Partly cloudy 10 - - - -
29/04:30am 24.7 SE 12 16 1012.9 - 10.4 - Partly cloudy 10 - - - -
29/04:00am 24.3 SE 9 14 1011.7 - 10.4 - Cloudy 10 - - - -
29/03:48am 24.2 SE 9 13 1013.3 - 10.4 - Partly cloudy 10 - - - -
29/03:45am 24.2 SE 9 13 1013.3 - 10.4 - Partly cloudy 10 - - - -
29/03:30am 23.8 ESE 8 11 1013.5 - 10.2 - Partly cloudy 3 - - - -
29/03:14am 24.2 ESE 13 25 1013.6 - 1.8 - Partly cloudy 4 - - - -
29/03:00am 25.2 SE 7 13 1013.7 - 0.0 - Partly cloudy 10 - - - -
29/02:30am 25.3 SE 11 16 1014.0 - 0.0 - Partly cloudy 10 - - - -
29/02:00am 25.4 SE 9 15 1013.9 - 0.0 - Partly cloudy 10 - - - -
29/01:39am 25.4 SE 9 14 1014.1 - 0.0 - Partly cloudy 10 - - - -
29/01:30am 25.4 SE 9 14 1014.1 - 0.0 - Partly cloudy 10 - - - -
29/01:19am 25.5 SE 8 14 1014.2 - 0.0 - Partly cloudy 4 - - - -
29/01:00am 25.5 SSE 8 14 1012.7 - 0.0 - Cloudy 10 - - - -
29/12:35am 25.3 SE 9 13 1014.3 - 0.0 - Partly cloudy 10 - - - -
29/12:30am 25.4 SE 8 13 1014.3 - 0.0 - Partly cloudy 10 - - - -
29/12:27am 25.5 SE 9 14 1014.4 - 0.0 - Partly cloudy 10 - - - -
29/12:00am 25.5 SE 11 17 1014.3 - 0.0 - Partly cloudy 10 - - - -
 
Date/Time
WST
Temp
°C
Wind Pressure Rain since
9am
mm
Weather Cloud Vis
km
Sea
Height
m
Swell
Dir  Spd
kts
Gust
kts
hPa Trend Height
m
Period
s
Dir
28/11:30pm 25.4 SE 9 16 1014.5 - 0.0 - Partly cloudy 10 - - - -
28/11:00pm 25.4 SE 9 13 1014.8 - 0.0 - Partly cloudy 10 - - - -
28/10:30pm 25.5 SE 10 14 1014.8 - 0.0 - Partly cloudy 10 - - - -
28/10:26pm 25.5 SE 10 14 1014.8 - 0.0 - Partly cloudy 10 - - - -
28/10:17pm 25.5 SE 9 16 1014.6 - 0.0 - Partly cloudy 10 - - - -
28/10:00pm 25.5 SE 11 17 1013.1 - 0.0 - Cloudy 10 - - - -
28/09:36pm 25.5 SE 11 17 1014.5 - 0.0 - Partly cloudy 10 - - - -
28/09:30pm 25.5 SE 12 17 1014.4 - 0.0 - Partly cloudy 10 - - - -
28/09:04pm 25.5 SE 11 18 1014.1 - 0.0 - Partly cloudy 10 - - - -
28/09:00pm 25.5 SE 11 17 1014.0 - 0.0 - Partly cloudy 10 - - - -
28/08:53pm 25.5 SE 12 18 1014.0 - 0.0 - Partly cloudy 10 - - - -
28/08:30pm 25.5 SE 11 17 1013.7 - 0.0 - Partly cloudy 10 - - - -
28/08:00pm 25.5 SE 11 18 1013.4 - 0.0 - Partly cloudy 10 - - - -
28/07:30pm 25.4 SE 11 16 1013.1 - 0.0 - Partly cloudy 10 - - - -
28/07:00pm 25.3 SE 10 15 1011.5 - 0.0 - Mostly cloudy 10 - - - -
28/06:30pm 25.5 SE 10 17 1012.7 - 0.0 - Partly cloudy 10 - - - -
28/06:00pm 25.6 SE 11 17 1012.6 - 0.0 - Partly cloudy 10 - - - -
28/05:30pm 25.9 SE 11 17 1012.5 - 0.0 - Partly cloudy 10 - - - -
28/05:00pm 26.3 SE 11 17 1012.3 - 0.0 - Partly cloudy 10 - - - -
28/04:30pm 26.1 SE 12 16 1012.1 - 0.0 - Partly cloudy 10 - - - -
28/04:00pm 26.1 SE 12 17 1010.4 - 0.0 - Cloudy 10 - - - -
28/03:30pm 26.3 SE 12 18 1011.7 - 0.0 - Partly cloudy 10 - - - -
28/03:00pm 26.6 SE 12 16 1011.9 - 0.0 - Partly cloudy 10 - - - -
28/02:30pm 26.7 SE 12 18 1012.2 - 0.0 - Partly cloudy 10 - - - -
28/02:00pm 26.8 SE 12 17 1012.4 - 0.0 - Partly cloudy 10 - - - -
28/01:30pm 26.8 SE 13 19 1012.6 - 0.0 - Partly cloudy 10 - - - -
28/01:00pm 26.7 ESE 13 19 1011.5 - 0.0 - Partly cloudy 10 - - - -
28/12:30pm 26.8 SE 13 18 1013.2 - 0.0 - Partly cloudy 10 - - - -
28/12:00pm 26.8 SE 12 19 1013.7 - 0.0 - Partly cloudy 10 - - - -
28/11:30am 26.8 SE 12 19 1014.0 - 0.0 - Partly cloudy 10 - - - -
28/11:00am 26.3 SE 14 20 1014.1 - 0.0 - Partly cloudy 10 - - - -
28/10:30am 26.6 SE 12 17 1014.1 - 0.0 - Partly cloudy 10 - - - -
28/10:00am 26.2 SE 11 16 1012.7 - 4.4 - Mostly cloudy 10 - - - -
28/09:30am 26.4 SE 12 17 1014.1 - 4.4 - Partly cloudy 10 - - - -
28/09:00am 26.0 SE 11 18 1014.0 - 4.4 - Partly cloudy - - - - -
28/08:30am 25.9 SE 11 15 1013.6 - 4.4 - Partly cloudy 10 - - - -
28/08:00am 25.3 SE 10 16 1013.3 - 4.4 - Partly cloudy 10 - - - -
28/07:30am 25.0 SE 9 15 1012.9 - 4.4 - Partly cloudy 10 - - - -
28/07:00am 24.9 SE 10 13 1011.1 - 4.4 - Mostly cloudy 10 - - - -
28/06:30am 25.0 SE 10 14 1012.8 - 4.4 - Partly cloudy 10 - - - -
28/06:00am 25.0 SE 9 14 1012.7 - 4.4 - Partly cloudy 10 - - - -
28/05:30am 25.1 SE 8 13 1012.6 - 4.4 - Partly cloudy 10 - - - -
28/05:00am 25.0 SE 9 14 1012.4 - 4.4 - Partly cloudy 10 - - - -
28/04:30am 25.2 SE 9 13 1012.3 - 4.4 - Partly cloudy 10 - - - -
28/04:00am 25.2 SE 9 14 1010.7 - 4.4 - Partly cloudy 10 - - - -
28/03:56am 25.1 SE 9 13 1012.4 - 4.4 - Partly cloudy 10 - - - -
28/03:30am 25.3 SE 9 14 1012.5 - 4.4 - Partly cloudy 10 - - - -
28/03:00am 25.3 SE 9 12 1012.6 - 4.4 - Partly cloudy 10 - - - -
28/02:30am 25.3 SE 9 13 1012.7 - 4.4 - Partly cloudy 10 - - - -
28/02:01am 25.3 SE 10 14 1012.9 - 4.4 - Partly cloudy 10 - - - -
28/02:00am 25.3 SE 10 14 1013.0 - 4.4 - Partly cloudy 10 - - - -
28/01:55am 25.2 SE 10 13 1013.0 - 4.4 - Partly cloudy 10 - - - -
28/01:30am 25.2 SE 9 13 1013.3 - 4.4 - Partly cloudy 10 - - - -
28/01:00am 25.3 SE 9 13 1012.2 - 4.4 - Cloudy 10 - - - -
28/12:30am 25.3 SE 8 11 1014.0 - 4.4 - Partly cloudy 10 - - - -
28/12:00am 25.4 SE 8 11 1014.1 - 4.4 - Partly cloudy 10 - - - -
 
Date/Time
WST
Temp
°C
Wind Pressure Rain since
9am
mm
Weather Cloud Vis
km
Sea
Height
m
Swell
Dir  Spd
kts
Gust
kts
hPa Trend Height
m
Period
s
Dir
27/11:58pm 25.4 SE 7 11 1014.1 - 4.4 - Partly cloudy 10 - - - -
27/11:55pm 25.5 ESE 7 11 1014.1 - 4.4 - Partly cloudy 10 - - - -
27/11:41pm 25.4 ESE 7 11 1014.1 - 4.4 - Partly cloudy 10 - - - -
27/11:30pm 25.3 ESE 7 13 1014.0 - 4.4 - Partly cloudy 10 - - - -
27/11:00pm 25.4 ESE 7 10 1014.1 - 4.4 - Partly cloudy 10 - - - -
27/10:58pm 25.4 ESE 7 10 1014.1 - 4.4 - Partly cloudy 10 - - - -
27/10:30pm 25.5 ESE 7 11 1014.2 - 4.4 - Partly cloudy 10 - - - -
27/10:12pm 25.6 ESE 8 10 1014.2 - 4.4 - Partly cloudy 10 - - - -
27/10:00pm 25.6 ESE 8 12 1012.6 - 4.4 - Cloudy 10 - - - -
27/09:30pm 25.3 SE 6 9 1014.1 - 4.4 - Partly cloudy 10 - - - -
27/09:00pm 25.4 ESE 7 10 1013.9 - 4.4 - Partly cloudy 10 - - - -
27/08:30pm 25.5 ESE 7 10 1013.7 - 4.4 - Partly cloudy 10 - - - -
27/08:00pm 25.4 SE 6 9 1013.5 - 4.4 - Partly cloudy 10 - - - -
27/07:30pm 25.5 ESE 7 10 1013.1 - 4.4 - Partly cloudy 10 - - - -
27/07:00pm 25.4 E 5 9 1011.2 - 4.4 - Partly cloudy 10 - - - -
27/06:30pm 25.5 SE 5 8 1012.6 - 4.4 - Partly cloudy 10 - - - -
27/06:00pm 25.8 ESE 7 10 1012.4 - 4.4 - Partly cloudy 10 - - - -
27/05:42pm 25.8 ESE 6 10 1012.2 - 4.4 - Partly cloudy 10 - - - -
27/05:30pm 25.9 ESE 7 10 1012.3 - 4.4 - Partly cloudy 10 - - - -
27/05:02pm 26.3 SE 4 7 1012.3 - 4.4 - Partly cloudy 10 - - - -
27/05:00pm 26.2 SE 4 7 1012.2 - 4.4 - Partly cloudy 10 - - - -
27/04:30pm 26.3 ESE 6 8 1011.9 - 4.4 - Partly cloudy 10 - - - -
27/04:00pm 26.4 ESE 6 8 1010.3 - 4.4 - Mostly clear 10 - - - -
27/03:30pm 26.0 SE 5 9 1012.1 - 4.4 - Partly cloudy 10 - - - -
27/03:00pm 24.6 SE 4 5 1012.3 - 4.4 - Partly cloudy 10 - - - -
27/02:38pm 24.1 ESE 3 5 1012.5 - 4.4 - Partly cloudy 10 - - - -
27/02:30pm 23.9 ESE 6 10 1012.6 - 4.4 - Partly cloudy 10 - - - -
27/02:24pm 24.2 ESE 8 14 1012.7 - 4.4 - Partly cloudy 3 - - - -
27/02:17pm 25.1 SE 9 13 1012.7 - 3.2 - Partly cloudy 5 - - - -
27/02:00pm 25.4 SSE 6 9 1012.8 - 1.4 - Partly cloudy 10 - - - -
27/01:30pm 24.9 SE 6 8 1013.3 - 1.4 - Partly cloudy 10 - - - -
27/01:00pm 23.9 ESE 11 20 1012.4 - 1.4 - Cloudy 10 - - - -
27/12:30pm 26.3 ESE 7 10 1014.1 - 1.4 - Partly cloudy 10 - - - -

Other Formats:

Comma delimited format used in spreadsheet applications
http://www.bom.gov.au/fwo/IDW60701/IDW60701.96995.axf

JavaScript Object Notation format (JSON) in row-major order
http://www.bom.gov.au/fwo/IDW60701/IDW60701.96995.json